Diba, Oman

12:14 PM GST on October 20, 2014 (GMT +0400)
Ras Al Khaimah International | Change Station
CLOSE
Current Station
Airport
Location: Ras Al Khaimah,
Elevation: 102 ft
Nearby Weather Stations

Elev 102 ft 25.61 °N, 55.94 °E | Updated 14 minutes ago

Clear
Clear
93 °F
Feels Like 96 °F
N
4
Wind Variable Wind from NE

Today
High -- | Low -- °F
--% Chance of Precip.
Yesterday
High -- | Low -- °F
Precip. -- in
6:16 AM 5:43 PM
Waning Crescent, 12% visible
Pressure 29.89 in
Visibility -9999.0 miles
Clouds
Heat Index 96 °F
Dew Point 66 °F
Humidity 41%
Rainfall 0.00 in
Snow Depth Not available.
UV Not available.
Pollen Not available.
Air Quality Not available.
Flu Activity Not available.
METAR OMRK 200800Z 04003KT CAVOK 34/19 Q1012 A2990

More Conditions Fewer Conditions

Pressure 29.89 in
Visibility -9999.0 miles
Clouds
Heat Index 96 °F
Dew Point 66 °F
Humidity 41%
Rainfall 0.00 in
Snow Depth Not available.
UV Not available.
Pollen Not available.
Air Quality Not available.
Flu Activity Not available.
METAR OMRK 200800Z 04003KT CAVOK 34/19 Q1012 A2990

More Conditions Fewer Conditions

10-Day Weather Forecast

Almanac

Astronomy

Oct. 20, 2014 Rise Set
Actual Time 6:16 AM GST 5:43 PM GST
Civil Twilight 5:52 AM GST 6:06 PM GST
Nautical Twilight 5:25 AM GST 6:33 PM GST
Astronomical Twilight 4:59 AM GST 7:00 PM GST
Moon 3:02 AM GST 3:35 PM GST
Length of Visible Light 12h 13m
Length of Day
11h 27m
Tomorrow will be 1m 25s shorter.
Waning Crescent, 12% of the Moon is Illuminated
Today
Waning Crescent
Oct 23
New
Oct 30
First Quarter
Nov 6
Full
Nov 14
Last Quarter

Yesterday's Extremes

Country Highs Country Lows

Community

WunderPhotos

Upload Photos

1,763,316 photos uploaded!

Nearby

Snow Depth

Not available.

Earthquake Activity

City Distance Mag. Time & Date
No recent earthquake activity has been reported nearby.
Minimum magnitude displayed is 2.5.

Coastal Water Temperatures

Place Temperature
No Stations Reporting

Nearby Weather Stations